sensor_id;sensor_type;location;lat;lon;timestamp;P1;durP1;ratioP1;P2;durP2;ratioP2
74471;SDS011;62920;53.572;10.050;2023-04-25T00:00:15;5.30;;;1.80;;
74471;SDS011;62920;53.572;10.050;2023-04-25T00:02:40;5.65;;;2.00;;
74471;SDS011;62920;53.572;10.050;2023-04-25T00:05:06;6.45;;;2.15;;
74471;SDS011;62920;53.572;10.050;2023-04-25T00:07:32;5.88;;;2.17;;
74471;SDS011;62920;53.572;10.050;2023-04-25T00:09:58;4.97;;;2.17;;
74471;SDS011;62920;53.572;10.050;2023-04-25T00:12:24;5.47;;;2.00;;
74471;SDS011;62920;53.572;10.050;2023-04-25T00:14:49;9.55;;;2.00;;
74471;SDS011;62920;53.572;10.050;2023-04-25T00:17:15;8.63;;;2.30;;
74471;SDS011;62920;53.572;10.050;2023-04-25T00:19:41;7.65;;;2.00;;
74471;SDS011;62920;53.572;10.050;2023-04-25T00:22:07;11.07;;;2.13;;
74471;SDS011;62920;53.572;10.050;2023-04-25T00:24:32;16.13;;;2.90;;
74471;SDS011;62920;53.572;10.050;2023-04-25T00:26:58;10.32;;;2.40;;
74471;SDS011;62920;53.572;10.050;2023-04-25T00:29:23;10.50;;;2.50;;
74471;SDS011;62920;53.572;10.050;2023-04-25T00:31:48;10.93;;;2.00;;
74471;SDS011;62920;53.572;10.050;2023-04-25T00:34:14;7.68;;;2.10;;
74471;SDS011;62920;53.572;10.050;2023-04-25T00:36:39;11.43;;;3.10;;
74471;SDS011;62920;53.572;10.050;2023-04-25T00:39:05;10.85;;;2.40;;
74471;SDS011;62920;53.572;10.050;2023-04-25T00:41:31;10.98;;;2.13;;
74471;SDS011;62920;53.572;10.050;2023-04-25T00:43:57;16.88;;;3.05;;
74471;SDS011;62920;53.572;10.050;2023-04-25T00:46:24;16.52;;;1.83;;
74471;SDS011;62920;53.572;10.050;2023-04-25T00:48:49;12.88;;;2.00;;
74471;SDS011;62920;53.572;10.050;2023-04-25T00:51:19;12.88;;;2.00;;
74471;SDS011;62920;53.572;10.050;2023-04-25T00:53:45;16.88;;;2.50;;
74471;SDS011;62920;53.572;10.050;2023-04-25T00:56:11;11.00;;;2.10;;
74471;SDS011;62920;53.572;10.050;2023-04-25T00:58:37;12.77;;;2.47;;
74471;SDS011;62920;53.572;10.050;2023-04-25T01:01:02;13.80;;;2.35;;
74471;SDS011;62920;53.572;10.050;2023-04-25T01:03:28;12.25;;;2.20;;
74471;SDS011;62920;53.572;10.050;2023-04-25T01:05:55;11.77;;;1.77;;
74471;SDS011;62920;53.572;10.050;2023-04-25T01:08:22;17.00;;;2.20;;
74471;SDS011;62920;53.572;10.050;2023-04-25T01:10:50;12.98;;;2.50;;
74471;SDS011;62920;53.572;10.050;2023-04-25T01:13:15;16.17;;;2.20;;
74471;SDS011;62920;53.572;10.050;2023-04-25T01:15:41;14.13;;;2.53;;
74471;SDS011;62920;53.572;10.050;2023-04-25T01:18:06;13.02;;;2.42;;
74471;SDS011;62920;53.572;10.050;2023-04-25T01:20:32;14.38;;;2.10;;
74471;SDS011;62920;53.572;10.050;2023-04-25T01:22:58;15.35;;;2.45;;
74471;SDS011;62920;53.572;10.050;2023-04-25T01:25:24;18.38;;;2.15;;
74471;SDS011;62920;53.572;10.050;2023-04-25T01:27:49;12.88;;;2.00;;
74471;SDS011;62920;53.572;10.050;2023-04-25T01:30:15;12.50;;;2.20;;
74471;SDS011;62920;53.572;10.050;2023-04-25T01:32:41;24.33;;;2.63;;
74471;SDS011;62920;53.572;10.050;2023-04-25T01:35:08;16.75;;;1.98;;
74471;SDS011;62920;53.572;10.050;2023-04-25T01:37:38;16.00;;;2.40;;
74471;SDS011;62920;53.572;10.050;2023-04-25T01:40:05;11.23;;;2.25;;
74471;SDS011;62920;53.572;10.050;2023-04-25T01:42:32;19.23;;;3.05;;
74471;SDS011;62920;53.572;10.050;2023-04-25T01:44:59;23.52;;;3.22;;
74471;SDS011;62920;53.572;10.050;2023-04-25T01:47:24;24.20;;;2.70;;
74471;SDS011;62920;53.572;10.050;2023-04-25T01:49:50;16.58;;;3.65;;
74471;SDS011;62920;53.572;10.050;2023-04-25T01:52:15;20.15;;;3.10;;
74471;SDS011;62920;53.572;10.050;2023-04-25T01:54:41;13.95;;;2.28;;
74471;SDS011;62920;53.572;10.050;2023-04-25T01:57:09;14.27;;;2.53;;
74471;SDS011;62920;53.572;10.050;2023-04-25T01:59:35;16.50;;;3.33;;
74471;SDS011;62920;53.572;10.050;2023-04-25T02:02:00;12.50;;;1.83;;
74471;SDS011;62920;53.572;10.050;2023-04-25T02:04:28;12.95;;;2.45;;
74471;SDS011;62920;53.572;10.050;2023-04-25T02:06:57;14.68;;;2.38;;
74471;SDS011;62920;53.572;10.050;2023-04-25T02:09:22;14.38;;;2.25;;
74471;SDS011;62920;53.572;10.050;2023-04-25T02:11:48;15.18;;;2.38;;
74471;SDS011;62920;53.572;10.050;2023-04-25T02:14:13;16.65;;;2.92;;
74471;SDS011;62920;53.572;10.050;2023-04-25T02:16:39;14.13;;;2.42;;
74471;SDS011;62920;53.572;10.050;2023-04-25T02:19:04;18.33;;;2.85;;
74471;SDS011;62920;53.572;10.050;2023-04-25T02:21:30;13.27;;;3.00;;
74471;SDS011;62920;53.572;10.050;2023-04-25T02:23:56;9.73;;;2.33;;
74471;SDS011;62920;53.572;10.050;2023-04-25T02:26:21;13.93;;;2.30;;
74471;SDS011;62920;53.572;10.050;2023-04-25T02:28:48;10.40;;;2.15;;
74471;SDS011;62920;53.572;10.050;2023-04-25T02:31:14;13.10;;;2.67;;
74471;SDS011;62920;53.572;10.050;2023-04-25T02:33:39;18.70;;;2.53;;
74471;SDS011;62920;53.572;10.050;2023-04-25T02:36:05;16.35;;;2.55;;
74471;SDS011;62920;53.572;10.050;2023-04-25T02:38:30;14.55;;;2.17;;
74471;SDS011;62920;53.572;10.050;2023-04-25T02:40:56;19.42;;;2.25;;
74471;SDS011;62920;53.572;10.050;2023-04-25T02:43:21;14.07;;;2.45;;
74471;SDS011;62920;53.572;10.050;2023-04-25T02:45:47;22.13;;;2.33;;
74471;SDS011;62920;53.572;10.050;2023-04-25T02:48:12;16.98;;;2.33;;
74471;SDS011;62920;53.572;10.050;2023-04-25T02:50:37;8.25;;;2.65;;
74471;SDS011;62920;53.572;10.050;2023-04-25T02:53:03;12.18;;;2.10;;
74471;SDS011;62920;53.572;10.050;2023-04-25T02:55:28;15.18;;;2.40;;
74471;SDS011;62920;53.572;10.050;2023-04-25T02:57:54;15.88;;;2.13;;
74471;SDS011;62920;53.572;10.050;2023-04-25T03:00:20;17.90;;;2.60;;
74471;SDS011;62920;53.572;10.050;2023-04-25T03:02:47;23.08;;;3.33;;
74471;SDS011;62920;53.572;10.050;2023-04-25T03:05:12;14.63;;;3.00;;
74471;SDS011;62920;53.572;10.050;2023-04-25T03:07:37;14.20;;;2.33;;
74471;SDS011;62920;53.572;10.050;2023-04-25T03:10:05;11.82;;;2.25;;
74471;SDS011;62920;53.572;10.050;2023-04-25T03:12:31;18.02;;;2.38;;
74471;SDS011;62920;53.572;10.050;2023-04-25T03:14:57;12.35;;;2.15;;
74471;SDS011;62920;53.572;10.050;2023-04-25T03:17:23;10.07;;;1.83;;
74471;SDS011;62920;53.572;10.050;2023-04-25T03:19:48;11.82;;;2.08;;
74471;SDS011;62920;53.572;10.050;2023-04-25T03:22:13;12.15;;;2.50;;
74471;SDS011;62920;53.572;10.050;2023-04-25T03:24:39;17.17;;;2.50;;
74471;SDS011;62920;53.572;10.050;2023-04-25T03:27:05;14.05;;;2.30;;
74471;SDS011;62920;53.572;10.050;2023-04-25T03:29:30;12.95;;;2.22;;
74471;SDS011;62920;53.572;10.050;2023-04-25T03:31:55;11.23;;;2.10;;
74471;SDS011;62920;53.572;10.050;2023-04-25T03:34:21;14.15;;;2.63;;
74471;SDS011;62920;53.572;10.050;2023-04-25T03:36:46;10.63;;;1.67;;
74471;SDS011;62920;53.572;10.050;2023-04-25T03:39:12;16.45;;;2.65;;
74471;SDS011;62920;53.572;10.050;2023-04-25T03:41:37;17.80;;;2.22;;
74471;SDS011;62920;53.572;10.050;2023-04-25T03:44:03;10.77;;;1.95;;
74471;SDS011;62920;53.572;10.050;2023-04-25T03:46:28;11.38;;;1.83;;
74471;SDS011;62920;53.572;10.050;2023-04-25T03:48:53;11.50;;;2.42;;
74471;SDS011;62920;53.572;10.050;2023-04-25T03:51:19;16.73;;;2.15;;
74471;SDS011;62920;53.572;10.050;2023-04-25T03:53:44;14.93;;;2.05;;
74471;SDS011;62920;53.572;10.050;2023-04-25T03:56:09;16.05;;;2.42;;
74471;SDS011;62920;53.572;10.050;2023-04-25T03:58:35;13.77;;;1.92;;
74471;SDS011;62920;53.572;10.050;2023-04-25T04:01:00;12.60;;;2.00;;
74471;SDS011;62920;53.572;10.050;2023-04-25T04:03:28;13.35;;;2.17;;
74471;SDS011;62920;53.572;10.050;2023-04-25T04:05:53;13.65;;;1.83;;
74471;SDS011;62920;53.572;10.050;2023-04-25T04:08:18;10.68;;;1.80;;
74471;SDS011;62920;53.572;10.050;2023-04-25T04:10:44;9.38;;;2.05;;
74471;SDS011;62920;53.572;10.050;2023-04-25T04:13:09;10.23;;;1.83;;
74471;SDS011;62920;53.572;10.050;2023-04-25T04:15:35;14.48;;;2.47;;
74471;SDS011;62920;53.572;10.050;2023-04-25T04:18:00;11.20;;;2.33;;
74471;SDS011;62920;53.572;10.050;2023-04-25T04:22:53;11.52;;;1.83;;
74471;SDS011;62920;53.572;10.050;2023-04-25T04:25:18;15.07;;;2.30;;
74471;SDS011;62920;53.572;10.050;2023-04-25T04:27:44;5.47;;;1.85;;
74471;SDS011;62920;53.572;10.050;2023-04-25T04:30:11;20.20;;;2.60;;
74471;SDS011;62920;53.572;10.050;2023-04-25T04:32:37;11.50;;;1.73;;
74471;SDS011;62920;53.572;10.050;2023-04-25T04:35:03;12.32;;;1.92;;
74471;SDS011;62920;53.572;10.050;2023-04-25T04:37:29;18.05;;;2.10;;
74471;SDS011;62920;53.572;10.050;2023-04-25T04:39:55;7.13;;;1.67;;
74471;SDS011;62920;53.572;10.050;2023-04-25T04:42:21;16.20;;;2.47;;
74471;SDS011;62920;53.572;10.050;2023-04-25T04:44:46;12.57;;;1.85;;
74471;SDS011;62920;53.572;10.050;2023-04-25T04:47:12;9.52;;;2.05;;
74471;SDS011;62920;53.572;10.050;2023-04-25T04:49:39;9.18;;;1.80;;
74471;SDS011;62920;53.572;10.050;2023-04-25T04:52:04;9.55;;;1.65;;
74471;SDS011;62920;53.572;10.050;2023-04-25T04:54:30;17.05;;;3.20;;
74471;SDS011;62920;53.572;10.050;2023-04-25T04:56:55;17.77;;;1.95;;
74471;SDS011;62920;53.572;10.050;2023-04-25T04:59:21;5.55;;;1.55;;
74471;SDS011;62920;53.572;10.050;2023-04-25T05:01:46;11.98;;;1.80;;
74471;SDS011;62920;53.572;10.050;2023-04-25T05:04:12;11.27;;;2.10;;
74471;SDS011;62920;53.572;10.050;2023-04-25T05:06:37;14.57;;;1.90;;
74471;SDS011;62920;53.572;10.050;2023-04-25T05:09:03;12.40;;;1.80;;
74471;SDS011;62920;53.572;10.050;2023-04-25T05:11:28;9.68;;;1.80;;
74471;SDS011;62920;53.572;10.050;2023-04-25T05:13:54;11.07;;;1.58;;
74471;SDS011;62920;53.572;10.050;2023-04-25T05:16:19;9.10;;;1.90;;
74471;SDS011;62920;53.572;10.050;2023-04-25T05:18:46;11.48;;;2.60;;
74471;SDS011;62920;53.572;10.050;2023-04-25T05:21:11;12.80;;;1.73;;
74471;SDS011;62920;53.572;10.050;2023-04-25T05:23:37;8.48;;;1.65;;
74471;SDS011;62920;53.572;10.050;2023-04-25T05:26:02;9.65;;;1.65;;
74471;SDS011;62920;53.572;10.050;2023-04-25T05:28:28;6.10;;;1.95;;
74471;SDS011;62920;53.572;10.050;2023-04-25T05:30:53;12.77;;;1.70;;
74471;SDS011;62920;53.572;10.050;2023-04-25T05:33:19;6.90;;;1.23;;
74471;SDS011;62920;53.572;10.050;2023-04-25T05:35:44;14.55;;;1.63;;
74471;SDS011;62920;53.572;10.050;2023-04-25T05:38:10;8.82;;;2.22;;
74471;SDS011;62920;53.572;10.050;2023-04-25T05:40:35;12.93;;;1.90;;
74471;SDS011;62920;53.572;10.050;2023-04-25T05:43:01;10.85;;;2.38;;
74471;SDS011;62920;53.572;10.050;2023-04-25T05:45:26;10.52;;;1.58;;
74471;SDS011;62920;53.572;10.050;2023-04-25T05:47:52;6.47;;;1.83;;
74471;SDS011;62920;53.572;10.050;2023-04-25T05:50:17;9.30;;;1.60;;
74471;SDS011;62920;53.572;10.050;2023-04-25T05:52:42;14.57;;;2.03;;
74471;SDS011;62920;53.572;10.050;2023-04-25T05:55:08;8.35;;;1.83;;
74471;SDS011;62920;53.572;10.050;2023-04-25T05:57:34;8.70;;;2.35;;
74471;SDS011;62920;53.572;10.050;2023-04-25T05:59:59;11.88;;;2.10;;
74471;SDS011;62920;53.572;10.050;2023-04-25T06:02:24;9.63;;;1.98;;
74471;SDS011;62920;53.572;10.050;2023-04-25T06:04:50;14.98;;;1.92;;
74471;SDS011;62920;53.572;10.050;2023-04-25T06:07:16;9.68;;;1.73;;
74471;SDS011;62920;53.572;10.050;2023-04-25T06:09:42;14.45;;;1.58;;
74471;SDS011;62920;53.572;10.050;2023-04-25T06:12:08;13.15;;;2.08;;
74471;SDS011;62920;53.572;10.050;2023-04-25T06:14:33;8.32;;;1.52;;
74471;SDS011;62920;53.572;10.050;2023-04-25T06:16:59;7.70;;;2.03;;
74471;SDS011;62920;53.572;10.050;2023-04-25T06:19:24;6.72;;;1.10;;
74471;SDS011;62920;53.572;10.050;2023-04-25T06:21:50;11.52;;;2.00;;
74471;SDS011;62920;53.572;10.050;2023-04-25T06:24:15;13.73;;;2.03;;
74471;SDS011;62920;53.572;10.050;2023-04-25T06:26:41;10.43;;;1.70;;
74471;SDS011;62920;53.572;10.050;2023-04-25T06:29:06;9.82;;;1.70;;
74471;SDS011;62920;53.572;10.050;2023-04-25T06:31:31;7.60;;;1.88;;
74471;SDS011;62920;53.572;10.050;2023-04-25T06:36:23;10.83;;;1.57;;
74471;SDS011;62920;53.572;10.050;2023-04-25T06:41:17;15.20;;;2.53;;
74471;SDS011;62920;53.572;10.050;2023-04-25T06:43:42;13.68;;;2.17;;
74471;SDS011;62920;53.572;10.050;2023-04-25T06:46:08;13.70;;;2.08;;
74471;SDS011;62920;53.572;10.050;2023-04-25T06:48:33;11.15;;;1.73;;
74471;SDS011;62920;53.572;10.050;2023-04-25T06:50:58;12.38;;;1.95;;
74471;SDS011;62920;53.572;10.050;2023-04-25T06:53:24;7.22;;;1.40;;
74471;SDS011;62920;53.572;10.050;2023-04-25T06:55:49;9.63;;;1.55;;
74471;SDS011;62920;53.572;10.050;2023-04-25T06:58:15;4.30;;;1.40;;
74471;SDS011;62920;53.572;10.050;2023-04-25T07:00:40;9.00;;;1.73;;
74471;SDS011;62920;53.572;10.050;2023-04-25T07:03:05;7.65;;;1.35;;
74471;SDS011;62920;53.572;10.050;2023-04-25T07:05:31;7.10;;;1.48;;
74471;SDS011;62920;53.572;10.050;2023-04-25T07:07:56;8.13;;;1.58;;
74471;SDS011;62920;53.572;10.050;2023-04-25T07:10:22;10.00;;;1.50;;
74471;SDS011;62920;53.572;10.050;2023-04-25T07:12:47;7.07;;;1.17;;
74471;SDS011;62920;53.572;10.050;2023-04-25T07:15:13;7.57;;;0.93;;
74471;SDS011;62920;53.572;10.050;2023-04-25T07:17:38;5.20;;;1.48;;
74471;SDS011;62920;53.572;10.050;2023-04-25T07:20:04;12.25;;;1.55;;
74471;SDS011;62920;53.572;10.050;2023-04-25T07:22:31;12.98;;;1.48;;
74471;SDS011;62920;53.572;10.050;2023-04-25T07:24:57;9.27;;;1.55;;
74471;SDS011;62920;53.572;10.050;2023-04-25T07:27:22;9.32;;;1.33;;
74471;SDS011;62920;53.572;10.050;2023-04-25T07:29:47;7.30;;;1.30;;
74471;SDS011;62920;53.572;10.050;2023-04-25T07:32:13;5.63;;;1.20;;
74471;SDS011;62920;53.572;10.050;2023-04-25T07:34:39;9.52;;;1.52;;
74471;SDS011;62920;53.572;10.050;2023-04-25T07:37:04;8.98;;;0.93;;
74471;SDS011;62920;53.572;10.050;2023-04-25T07:39:30;8.38;;;1.77;;
74471;SDS011;62920;53.572;10.050;2023-04-25T07:41:55;11.23;;;1.45;;
74471;SDS011;62920;53.572;10.050;2023-04-25T07:44:23;8.73;;;1.15;;
74471;SDS011;62920;53.572;10.050;2023-04-25T07:46:49;8.40;;;1.50;;
74471;SDS011;62920;53.572;10.050;2023-04-25T07:49:14;6.95;;;1.30;;
74471;SDS011;62920;53.572;10.050;2023-04-25T07:51:40;10.70;;;1.27;;
74471;SDS011;62920;53.572;10.050;2023-04-25T07:54:06;6.20;;;1.27;;
74471;SDS011;62920;53.572;10.050;2023-04-25T07:56:31;6.68;;;1.55;;
74471;SDS011;62920;53.572;10.050;2023-04-25T07:58:57;9.48;;;1.25;;
74471;SDS011;62920;53.572;10.050;2023-04-25T08:01:23;7.78;;;1.80;;
74471;SDS011;62920;53.572;10.050;2023-04-25T08:03:48;8.23;;;1.20;;
74471;SDS011;62920;53.572;10.050;2023-04-25T08:06:14;8.00;;;1.33;;
74471;SDS011;62920;53.572;10.050;2023-04-25T08:08:39;12.38;;;1.80;;
74471;SDS011;62920;53.572;10.050;2023-04-25T08:11:05;8.27;;;1.25;;
74471;SDS011;62920;53.572;10.050;2023-04-25T08:13:30;9.93;;;1.80;;
74471;SDS011;62920;53.572;10.050;2023-04-25T08:15:56;8.40;;;1.30;;
74471;SDS011;62920;53.572;10.050;2023-04-25T08:18:21;7.63;;;1.50;;
74471;SDS011;62920;53.572;10.050;2023-04-25T08:20:47;5.90;;;1.65;;
74471;SDS011;62920;53.572;10.050;2023-04-25T08:23:12;13.48;;;1.70;;
74471;SDS011;62920;53.572;10.050;2023-04-25T08:25:38;8.20;;;1.00;;
74471;SDS011;62920;53.572;10.050;2023-04-25T08:28:03;9.38;;;1.30;;
74471;SDS011;62920;53.572;10.050;2023-04-25T08:30:29;11.10;;;1.40;;
74471;SDS011;62920;53.572;10.050;2023-04-25T08:32:54;9.10;;;1.27;;
74471;SDS011;62920;53.572;10.050;2023-04-25T08:35:20;13.30;;;1.73;;
74471;SDS011;62920;53.572;10.050;2023-04-25T08:37:45;9.30;;;1.30;;
74471;SDS011;62920;53.572;10.050;2023-04-25T08:40:14;9.38;;;1.58;;
74471;SDS011;62920;53.572;10.050;2023-04-25T08:42:40;7.40;;;1.38;;
74471;SDS011;62920;53.572;10.050;2023-04-25T08:47:33;12.60;;;1.75;;
74471;SDS011;62920;53.572;10.050;2023-04-25T08:52:24;10.55;;;1.80;;
74471;SDS011;62920;53.572;10.050;2023-04-25T08:54:52;8.45;;;1.23;;
74471;SDS011;62920;53.572;10.050;2023-04-25T08:57:19;6.22;;;1.20;;
74471;SDS011;62920;53.572;10.050;2023-04-25T08:59:45;7.13;;;1.70;;
74471;SDS011;62920;53.572;10.050;2023-04-25T09:02:12;6.57;;;1.05;;
74471;SDS011;62920;53.572;10.050;2023-04-25T09:04:43;10.52;;;1.92;;
74471;SDS011;62920;53.572;10.050;2023-04-25T09:07:09;7.65;;;1.35;;
74471;SDS011;62920;53.572;10.050;2023-04-25T09:09:34;6.07;;;1.30;;
74471;SDS011;62920;53.572;10.050;2023-04-25T09:12:00;6.07;;;1.00;;
74471;SDS011;62920;53.572;10.050;2023-04-25T09:14:26;4.78;;;1.20;;
74471;SDS011;62920;53.572;10.050;2023-04-25T09:19:39;7.03;;;0.80;;
74471;SDS011;62920;53.572;10.050;2023-04-25T09:22:05;3.53;;;0.80;;
74471;SDS011;62920;53.572;10.050;2023-04-25T09:24:32;9.65;;;1.02;;
74471;SDS011;62920;53.572;10.050;2023-04-25T09:26:58;6.88;;;1.00;;
74471;SDS011;62920;53.572;10.050;2023-04-25T09:29:28;6.55;;;0.90;;
74471;SDS011;62920;53.572;10.050;2023-04-25T09:32:15;11.32;;;1.67;;
74471;SDS011;62920;53.572;10.050;2023-04-25T09:34:48;8.43;;;1.13;;
74471;SDS011;62920;53.572;10.050;2023-04-25T09:37:28;8.32;;;1.40;;
74471;SDS011;62920;53.572;10.050;2023-04-25T09:39:59;8.52;;;1.30;;
74471;SDS011;62920;53.572;10.050;2023-04-25T09:44:54;8.23;;;1.00;;
74471;SDS011;62920;53.572;10.050;2023-04-25T09:47:20;6.85;;;1.80;;
74471;SDS011;62920;53.572;10.050;2023-04-25T09:49:48;8.85;;;1.20;;
74471;SDS011;62920;53.572;10.050;2023-04-25T09:52:15;9.27;;;1.00;;
74471;SDS011;62920;53.572;10.050;2023-04-25T09:54:48;6.78;;;0.82;;
74471;SDS011;62920;53.572;10.050;2023-04-25T09:57:15;8.32;;;1.08;;
74471;SDS011;62920;53.572;10.050;2023-04-25T09:59:49;8.45;;;0.88;;
74471;SDS011;62920;53.572;10.050;2023-04-25T10:02:16;8.60;;;1.33;;
74471;SDS011;62920;53.572;10.050;2023-04-25T10:04:49;6.07;;;1.30;;
74471;SDS011;62920;53.572;10.050;2023-04-25T10:07:17;6.15;;;1.20;;
74471;SDS011;62920;53.572;10.050;2023-04-25T10:09:43;9.73;;;1.10;;
74471;SDS011;62920;53.572;10.050;2023-04-25T10:12:10;8.82;;;1.30;;
74471;SDS011;62920;53.572;10.050;2023-04-25T10:14:36;5.72;;;1.00;;
74471;SDS011;62920;53.572;10.050;2023-04-25T10:17:01;6.38;;;1.17;;
74471;SDS011;62920;53.572;10.050;2023-04-25T10:19:27;7.90;;;1.60;;
74471;SDS011;62920;53.572;10.050;2023-04-25T10:21:54;7.32;;;1.33;;
74471;SDS011;62920;53.572;10.050;2023-04-25T10:24:21;4.88;;;1.00;;
74471;SDS011;62920;53.572;10.050;2023-04-25T10:26:47;4.97;;;0.77;;
74471;SDS011;62920;53.572;10.050;2023-04-25T10:29:14;4.95;;;1.20;;
74471;SDS011;62920;53.572;10.050;2023-04-25T10:31:46;4.72;;;0.90;;
74471;SDS011;62920;53.572;10.050;2023-04-25T10:34:12;7.65;;;1.20;;
74471;SDS011;62920;53.572;10.050;2023-04-25T10:36:37;3.95;;;1.25;;
74471;SDS011;62920;53.572;10.050;2023-04-25T10:39:06;10.20;;;1.60;;
74471;SDS011;62920;53.572;10.050;2023-04-25T10:42:07;6.75;;;1.15;;
74471;SDS011;62920;53.572;10.050;2023-04-25T10:44:27;6.63;;;0.95;;
74471;SDS011;62920;53.572;10.050;2023-04-25T10:47:00;7.18;;;1.30;;
74471;SDS011;62920;53.572;10.050;2023-04-25T10:49:28;6.15;;;1.48;;
74471;SDS011;62920;53.572;10.050;2023-04-25T10:52:32;3.65;;;0.80;;
74471;SDS011;62920;53.572;10.050;2023-04-25T10:54:52;5.90;;;0.90;;
74471;SDS011;62920;53.572;10.050;2023-04-25T10:57:28;5.28;;;0.70;;
74471;SDS011;62920;53.572;10.050;2023-04-25T11:00:16;7.45;;;1.00;;
74471;SDS011;62920;53.572;10.050;2023-04-25T11:02:47;7.63;;;1.10;;
74471;SDS011;62920;53.572;10.050;2023-04-25T11:05:29;7.57;;;0.95;;
74471;SDS011;62920;53.572;10.050;2023-04-25T11:07:59;5.10;;;0.80;;
74471;SDS011;62920;53.572;10.050;2023-04-25T11:10:25;5.68;;;1.05;;
74471;SDS011;62920;53.572;10.050;2023-04-25T11:12:51;12.15;;;1.08;;
74471;SDS011;62920;53.572;10.050;2023-04-25T11:15:17;5.70;;;1.30;;
74471;SDS011;62920;53.572;10.050;2023-04-25T11:17:42;7.55;;;0.90;;
74471;SDS011;62920;53.572;10.050;2023-04-25T11:20:09;7.00;;;1.20;;
74471;SDS011;62920;53.572;10.050;2023-04-25T11:22:37;8.60;;;1.30;;
74471;SDS011;62920;53.572;10.050;2023-04-25T11:27:32;4.40;;;0.70;;
74471;SDS011;62920;53.572;10.050;2023-04-25T11:29:57;4.85;;;1.23;;
74471;SDS011;62920;53.572;10.050;2023-04-25T11:32:22;5.25;;;0.80;;
74471;SDS011;62920;53.572;10.050;2023-04-25T11:34:48;4.32;;;0.70;;
74471;SDS011;62920;53.572;10.050;2023-04-25T11:37:13;5.35;;;1.00;;
74471;SDS011;62920;53.572;10.050;2023-04-25T11:39:42;8.82;;;1.05;;
74471;SDS011;62920;53.572;10.050;2023-04-25T11:42:10;4.97;;;0.85;;
74471;SDS011;62920;53.572;10.050;2023-04-25T11:44:35;8.32;;;1.25;;
74471;SDS011;62920;53.572;10.050;2023-04-25T11:47:03;7.30;;;0.68;;
74471;SDS011;62920;53.572;10.050;2023-04-25T11:49:32;6.85;;;0.80;;
74471;SDS011;62920;53.572;10.050;2023-04-25T11:51:57;5.47;;;0.80;;
74471;SDS011;62920;53.572;10.050;2023-04-25T11:54:23;4.70;;;0.57;;
74471;SDS011;62920;53.572;10.050;2023-04-25T11:56:48;4.97;;;0.52;;
74471;SDS011;62920;53.572;10.050;2023-04-25T11:59:13;5.20;;;0.70;;
74471;SDS011;62920;53.572;10.050;2023-04-25T12:01:47;2.58;;;0.55;;
74471;SDS011;62920;53.572;10.050;2023-04-25T12:04:15;5.50;;;1.33;;
74471;SDS011;62920;53.572;10.050;2023-04-25T12:06:43;3.63;;;0.68;;
74471;SDS011;62920;53.572;10.050;2023-04-25T12:09:10;2.40;;;0.50;;
74471;SDS011;62920;53.572;10.050;2023-04-25T12:11:56;3.83;;;0.73;;
74471;SDS011;62920;53.572;10.050;2023-04-25T12:14:27;6.30;;;0.77;;
74471;SDS011;62920;53.572;10.050;2023-04-25T12:16:55;5.35;;;0.98;;
74471;SDS011;62920;53.572;10.050;2023-04-25T12:19:22;5.38;;;0.77;;
74471;SDS011;62920;53.572;10.050;2023-04-25T12:21:48;3.17;;;0.50;;
74471;SDS011;62920;53.572;10.050;2023-04-25T12:26:48;4.65;;;0.60;;
74471;SDS011;62920;53.572;10.050;2023-04-25T12:29:20;2.95;;;0.57;;
74471;SDS011;62920;53.572;10.050;2023-04-25T12:31:50;4.22;;;0.90;;
74471;SDS011;62920;53.572;10.050;2023-04-25T12:34:16;4.45;;;0.52;;
74471;SDS011;62920;53.572;10.050;2023-04-25T12:39:08;5.28;;;0.80;;
74471;SDS011;62920;53.572;10.050;2023-04-25T12:41:34;6.55;;;0.63;;
74471;SDS011;62920;53.572;10.050;2023-04-25T12:43:59;5.70;;;0.80;;
74471;SDS011;62920;53.572;10.050;2023-04-25T12:46:25;3.20;;;0.60;;
74471;SDS011;62920;53.572;10.050;2023-04-25T12:48:50;3.30;;;0.50;;
74471;SDS011;62920;53.572;10.050;2023-04-25T12:51:15;3.53;;;0.77;;
74471;SDS011;62920;53.572;10.050;2023-04-25T12:53:41;5.32;;;0.75;;
74471;SDS011;62920;53.572;10.050;2023-04-25T12:56:07;5.75;;;0.90;;
74471;SDS011;62920;53.572;10.050;2023-04-25T12:58:32;7.03;;;1.23;;
74471;SDS011;62920;53.572;10.050;2023-04-25T13:00:58;4.22;;;0.70;;
74471;SDS011;62920;53.572;10.050;2023-04-25T13:03:24;6.38;;;0.82;;
74471;SDS011;62920;53.572;10.050;2023-04-25T13:05:50;7.90;;;1.00;;
74471;SDS011;62920;53.572;10.050;2023-04-25T13:08:17;4.88;;;0.93;;
74471;SDS011;62920;53.572;10.050;2023-04-25T13:10:43;5.50;;;0.80;;
74471;SDS011;62920;53.572;10.050;2023-04-25T13:13:08;5.75;;;1.30;;
74471;SDS011;62920;53.572;10.050;2023-04-25T13:15:34;4.03;;;0.93;;
74471;SDS011;62920;53.572;10.050;2023-04-25T13:18:00;5.88;;;0.82;;
74471;SDS011;62920;53.572;10.050;2023-04-25T13:20:25;5.53;;;1.13;;
74471;SDS011;62920;53.572;10.050;2023-04-25T13:22:50;4.28;;;0.70;;
74471;SDS011;62920;53.572;10.050;2023-04-25T13:25:16;3.22;;;0.70;;
74471;SDS011;62920;53.572;10.050;2023-04-25T13:27:41;4.65;;;0.73;;
74471;SDS011;62920;53.572;10.050;2023-04-25T13:30:09;5.03;;;0.70;;
74471;SDS011;62920;53.572;10.050;2023-04-25T13:32:35;3.50;;;0.70;;
74471;SDS011;62920;53.572;10.050;2023-04-25T13:35:03;4.35;;;0.70;;
74471;SDS011;62920;53.572;10.050;2023-04-25T13:37:30;3.80;;;0.80;;
74471;SDS011;62920;53.572;10.050;2023-04-25T13:39:58;4.70;;;0.85;;
74471;SDS011;62920;53.572;10.050;2023-04-25T13:42:25;5.80;;;1.02;;
74471;SDS011;62920;53.572;10.050;2023-04-25T13:44:50;7.13;;;1.13;;
74471;SDS011;62920;53.572;10.050;2023-04-25T13:47:16;8.02;;;1.23;;
74471;SDS011;62920;53.572;10.050;2023-04-25T13:49:41;11.30;;;0.95;;
74471;SDS011;62920;53.572;10.050;2023-04-25T13:52:06;4.18;;;0.85;;
74471;SDS011;62920;53.572;10.050;2023-04-25T13:54:32;6.93;;;1.02;;
74471;SDS011;62920;53.572;10.050;2023-04-25T13:56:58;4.70;;;0.85;;
74471;SDS011;62920;53.572;10.050;2023-04-25T13:59:24;5.00;;;0.90;;
74471;SDS011;62920;53.572;10.050;2023-04-25T14:01:50;5.07;;;1.00;;
74471;SDS011;62920;53.572;10.050;2023-04-25T14:04:16;3.40;;;0.90;;
74471;SDS011;62920;53.572;10.050;2023-04-25T14:06:41;7.07;;;1.20;;
74471;SDS011;62920;53.572;10.050;2023-04-25T14:09:07;4.47;;;0.70;;
74471;SDS011;62920;53.572;10.050;2023-04-25T14:11:35;5.75;;;0.70;;
74471;SDS011;62920;53.572;10.050;2023-04-25T14:14:01;4.30;;;0.65;;
74471;SDS011;62920;53.572;10.050;2023-04-25T14:16:26;4.60;;;0.93;;
74471;SDS011;62920;53.572;10.050;2023-04-25T14:18:52;7.45;;;1.00;;
74471;SDS011;62920;53.572;10.050;2023-04-25T14:21:17;4.10;;;0.80;;
74471;SDS011;62920;53.572;10.050;2023-04-25T14:23:43;3.83;;;0.90;;
74471;SDS011;62920;53.572;10.050;2023-04-25T14:26:08;5.43;;;0.95;;
74471;SDS011;62920;53.572;10.050;2023-04-25T14:28:37;8.65;;;1.20;;
74471;SDS011;62920;53.572;10.050;2023-04-25T14:31:02;8.75;;;1.20;;
74471;SDS011;62920;53.572;10.050;2023-04-25T14:33:28;4.97;;;0.93;;
74471;SDS011;62920;53.572;10.050;2023-04-25T14:35:53;6.97;;;1.20;;
74471;SDS011;62920;53.572;10.050;2023-04-25T14:38:22;4.18;;;1.00;;
74471;SDS011;62920;53.572;10.050;2023-04-25T14:40:51;4.97;;;0.70;;
74471;SDS011;62920;53.572;10.050;2023-04-25T14:43:16;7.72;;;1.08;;
74471;SDS011;62920;53.572;10.050;2023-04-25T14:45:42;4.50;;;0.70;;
74471;SDS011;62920;53.572;10.050;2023-04-25T14:48:07;5.63;;;1.10;;